首页
METAR-TAF:

METAR-TAF

机场 :

沙赫阿馬納國際機場

吉大港, 孟加拉国

纬度: 22-16N, 经度: 091-49E, 海拔: 4米

当前天气观测

该预报发布于41分钟前的01:00 UTC
风速9节,风向南转南东
温度 29°C
湿度 94%
气压 1005 hPa
能見度: 4000
散云层高于1600英尺
少量云层高于2800英尺, 积雨云.
多云层高于10000英尺

METAR: VGEG 170100Z 16009KT 4000 RERA SCT016 FEW028CB BKN100 29/28 Q1005 NOSIG

时间: 07:41 (01:41 UTC)

预报

该预报发布于2小时和41分钟前的23:00 UTC
预报有效从17日的 00点(UTC)到 18日的 06点(UTC)
风速7节,风向南转南东
能見度: 4000
散云层高于1600英尺
多云层高于10000英尺
短暂存在
从 17日的 02点(UTC)到 17日的 06点(UTC)
风速15节,风向,有时为25节阵风
能見度: 2000
多云层高于800英尺
少量云层高于2500英尺, 积雨云.
阴天层高于8000英尺
成为
从 17日的 07点(UTC)到 17日的 09点(UTC)
风速8节,风向南转南东
能見度: 4000
散云层高于1800英尺
散云层高于10000英尺
成为
从 17日的 12点(UTC)到 17日的 14点(UTC)
风速10节,风向
能見度: 5000
散云层高于1800英尺
散云层高于10000英尺
成为
从 17日的 18点(UTC)到 17日的 20点(UTC)
风速8节,风向
能見度: 4000
散云层高于1600英尺
多云层高于10000英尺
成为
从 18日的 02点(UTC)到 18日的 04点(UTC)
风速7节,风向南转南东
能見度: 4000
散云层高于1600英尺
多云层高于10000英尺
霾,

TAF: VGEG 162300Z 1700/1806 16007KT 4000 HZ SCT016 BKN100 TEMPO 1702/1706 17015G25KT 2000 RA/TSRA BKN008 FEW025CB OVC080 BECMG 1707/1709 16008KT 4000 HZ SCT018 SCT100 BECMG 1712/1714 19010KT 5000 HZ SCT018 SCT100 BECMG 1718/1720 17008KT 4000 HZ SCT016 BKN100 BECMG 1802/1804 16007KT 4000 HZ SCT016 BKN100

超过4000个机场的气象观测和天气预报(METAR&TAF报告)。

可查询的气象台以黄色和红色小点在地图上表示。

将鼠标移到小点上方,可查看气象台名称。

然后点击查看天气观测和预报。

如需切换地图:点击带黑十字的绿色按钮放大地图;点击带横线的绿色按钮缩小地图;或者点击绿色箭头查看邻近地区的地图。


METAR-TAF: